sensor_id;sensor_type;location;lat;lon;timestamp;P1;durP1;ratioP1;P2;durP2;ratioP2
13319;SDS011;59599;47.608;12.190;2024-03-02T05:01:32;20.17;;;13.67;;
13319;SDS011;59599;47.608;12.190;2024-03-02T05:03:58;17.27;;;12.70;;
13319;SDS011;59599;47.608;12.190;2024-03-02T05:06:24;24.17;;;14.97;;
13319;SDS011;59599;47.608;12.190;2024-03-02T05:08:49;20.07;;;13.20;;
13319;SDS011;59599;47.608;12.190;2024-03-02T05:11:15;18.37;;;13.13;;
13319;SDS011;59599;47.608;12.190;2024-03-02T05:14:00;19.00;;;13.07;;
13319;SDS011;59599;47.608;12.190;2024-03-02T05:16:25;21.27;;;13.60;;
13319;SDS011;59599;47.608;12.190;2024-03-02T05:18:51;17.30;;;12.33;;
13319;SDS011;59599;47.608;12.190;2024-03-02T05:21:17;17.63;;;12.27;;
13319;SDS011;59599;47.608;12.190;2024-03-02T05:23:43;15.67;;;11.20;;
13319;SDS011;59599;47.608;12.190;2024-03-02T05:26:09;18.37;;;13.07;;
13319;SDS011;59599;47.608;12.190;2024-03-02T05:28:38;14.80;;;10.77;;
13319;SDS011;59599;47.608;12.190;2024-03-02T05:31:04;16.13;;;10.80;;
13319;SDS011;59599;47.608;12.190;2024-03-02T05:33:30;16.03;;;11.23;;
13319;SDS011;59599;47.608;12.190;2024-03-02T05:35:58;18.03;;;11.60;;
13319;SDS011;59599;47.608;12.190;2024-03-02T05:38:24;16.60;;;10.50;;
13319;SDS011;59599;47.608;12.190;2024-03-02T05:40:49;16.13;;;11.90;;
13319;SDS011;59599;47.608;12.190;2024-03-02T05:43:16;17.23;;;12.13;;
13319;SDS011;59599;47.608;12.190;2024-03-02T05:45:43;19.00;;;12.80;;
13319;SDS011;59599;47.608;12.190;2024-03-02T05:48:09;18.17;;;11.63;;
13319;SDS011;59599;47.608;12.190;2024-03-02T05:50:35;19.00;;;12.13;;
13319;SDS011;59599;47.608;12.190;2024-03-02T05:53:01;19.73;;;12.50;;
13319;SDS011;59599;47.608;12.190;2024-03-02T05:55:27;17.83;;;12.23;;
13319;SDS011;59599;47.608;12.190;2024-03-02T05:57:52;18.03;;;12.63;;
13319;SDS011;59599;47.608;12.190;2024-03-02T06:00:30;15.67;;;11.77;;
13319;SDS011;59599;47.608;12.190;2024-03-02T06:02:56;18.13;;;13.40;;
13319;SDS011;59599;47.608;12.190;2024-03-02T06:05:22;17.70;;;12.63;;
13319;SDS011;59599;47.608;12.190;2024-03-02T06:07:49;19.40;;;11.93;;
13319;SDS011;59599;47.608;12.190;2024-03-02T06:10:15;21.63;;;13.77;;
13319;SDS011;59599;47.608;12.190;2024-03-02T06:12:42;20.20;;;13.30;;
13319;SDS011;59599;47.608;12.190;2024-03-02T06:15:08;19.60;;;13.00;;
13319;SDS011;59599;47.608;12.190;2024-03-02T06:17:35;18.33;;;12.30;;
13319;SDS011;59599;47.608;12.190;2024-03-02T06:20:01;16.57;;;10.80;;
13319;SDS011;59599;47.608;12.190;2024-03-02T06:22:27;18.33;;;11.03;;
13319;SDS011;59599;47.608;12.190;2024-03-02T06:24:53;19.03;;;11.37;;
13319;SDS011;59599;47.608;12.190;2024-03-02T06:27:19;20.07;;;12.70;;
13319;SDS011;59599;47.608;12.190;2024-03-02T06:29:45;15.83;;;10.97;;
13319;SDS011;59599;47.608;12.190;2024-03-02T06:32:11;17.63;;;11.43;;
13319;SDS011;59599;47.608;12.190;2024-03-02T06:34:36;15.20;;;10.87;;
13319;SDS011;59599;47.608;12.190;2024-03-02T06:37:02;17.23;;;11.43;;
13319;SDS011;59599;47.608;12.190;2024-03-02T06:39:28;17.60;;;11.37;;
13319;SDS011;59599;47.608;12.190;2024-03-02T06:41:56;19.33;;;12.67;;
13319;SDS011;59599;47.608;12.190;2024-03-02T06:44:22;15.40;;;10.83;;
13319;SDS011;59599;47.608;12.190;2024-03-02T06:46:47;15.10;;;10.27;;
13319;SDS011;59599;47.608;12.190;2024-03-02T06:49:13;15.17;;;9.27;;
13319;SDS011;59599;47.608;12.190;2024-03-02T06:51:39;12.03;;;9.17;;
13319;SDS011;59599;47.608;12.190;2024-03-02T06:54:07;13.53;;;9.10;;
13319;SDS011;59599;47.608;12.190;2024-03-02T06:56:33;14.27;;;9.23;;
13319;SDS011;59599;47.608;12.190;2024-03-02T06:58:59;12.03;;;9.10;;
13319;SDS011;59599;47.608;12.190;2024-03-02T07:01:24;15.23;;;9.73;;
13319;SDS011;59599;47.608;12.190;2024-03-02T07:03:51;15.17;;;10.70;;
13319;SDS011;59599;47.608;12.190;2024-03-02T07:06:17;14.77;;;9.83;;
13319;SDS011;59599;47.608;12.190;2024-03-02T07:08:43;19.73;;;10.50;;
13319;SDS011;59599;47.608;12.190;2024-03-02T07:11:09;15.93;;;10.93;;
13319;SDS011;59599;47.608;12.190;2024-03-02T07:13:34;14.93;;;10.60;;
13319;SDS011;59599;47.608;12.190;2024-03-02T07:16:00;17.73;;;10.90;;
13319;SDS011;59599;47.608;12.190;2024-03-02T07:18:29;17.20;;;11.23;;
13319;SDS011;59599;47.608;12.190;2024-03-02T07:20:55;15.80;;;10.67;;
13319;SDS011;59599;47.608;12.190;2024-03-02T07:23:24;18.43;;;10.03;;
13319;SDS011;59599;47.608;12.190;2024-03-02T07:25:52;15.23;;;10.10;;
13319;SDS011;59599;47.608;12.190;2024-03-02T07:28:22;17.90;;;10.20;;
13319;SDS011;59599;47.608;12.190;2024-03-02T07:30:57;14.17;;;10.40;;
13319;SDS011;59599;47.608;12.190;2024-03-02T07:33:27;15.17;;;10.13;;
13319;SDS011;59599;47.608;12.190;2024-03-02T07:35:56;14.17;;;10.30;;
13319;SDS011;59599;47.608;12.190;2024-03-02T07:38:24;15.03;;;10.70;;
13319;SDS011;59599;47.608;12.190;2024-03-02T07:40:50;15.60;;;10.70;;
13319;SDS011;59599;47.608;12.190;2024-03-02T07:43:16;16.47;;;11.47;;
13319;SDS011;59599;47.608;12.190;2024-03-02T07:45:42;15.27;;;10.73;;
13319;SDS011;59599;47.608;12.190;2024-03-02T07:48:08;16.10;;;11.30;;
13319;SDS011;59599;47.608;12.190;2024-03-02T07:50:34;16.57;;;11.40;;
13319;SDS011;59599;47.608;12.190;2024-03-02T07:53:00;17.47;;;11.30;;
13319;SDS011;59599;47.608;12.190;2024-03-02T07:55:26;17.73;;;11.73;;
13319;SDS011;59599;47.608;12.190;2024-03-02T07:57:52;18.23;;;13.23;;
13319;SDS011;59599;47.608;12.190;2024-03-02T08:00:18;18.50;;;12.97;;
13319;SDS011;59599;47.608;12.190;2024-03-02T08:02:44;19.90;;;13.00;;
13319;SDS011;59599;47.608;12.190;2024-03-02T08:05:10;16.53;;;12.33;;
13319;SDS011;59599;47.608;12.190;2024-03-02T08:07:36;19.07;;;12.53;;
13319;SDS011;59599;47.608;12.190;2024-03-02T08:10:02;17.20;;;12.23;;
13319;SDS011;59599;47.608;12.190;2024-03-02T08:12:28;16.70;;;12.47;;
13319;SDS011;59599;47.608;12.190;2024-03-02T08:14:54;16.87;;;13.23;;
13319;SDS011;59599;47.608;12.190;2024-03-02T08:17:20;23.83;;;13.73;;
13319;SDS011;59599;47.608;12.190;2024-03-02T08:19:47;16.43;;;12.60;;
13319;SDS011;59599;47.608;12.190;2024-03-02T08:22:13;17.40;;;12.30;;
13319;SDS011;59599;47.608;12.190;2024-03-02T08:24:40;18.77;;;12.57;;
13319;SDS011;59599;47.608;12.190;2024-03-02T08:27:06;17.57;;;11.63;;
13319;SDS011;59599;47.608;12.190;2024-03-02T08:29:31;17.20;;;11.93;;
13319;SDS011;59599;47.608;12.190;2024-03-02T08:31:57;15.77;;;10.87;;
13319;SDS011;59599;47.608;12.190;2024-03-02T08:34:23;21.80;;;15.93;;
13319;SDS011;59599;47.608;12.190;2024-03-02T08:36:49;15.67;;;11.70;;
13319;SDS011;59599;47.608;12.190;2024-03-02T08:39:15;16.20;;;11.30;;
13319;SDS011;59599;47.608;12.190;2024-03-02T08:41:41;27.43;;;16.17;;
13319;SDS011;59599;47.608;12.190;2024-03-02T08:44:08;19.83;;;13.33;;
13319;SDS011;59599;47.608;12.190;2024-03-02T08:46:34;19.40;;;12.83;;
13319;SDS011;59599;47.608;12.190;2024-03-02T08:49:00;16.33;;;12.37;;
13319;SDS011;59599;47.608;12.190;2024-03-02T08:51:26;16.73;;;11.70;;
13319;SDS011;59599;47.608;12.190;2024-03-02T08:53:52;14.20;;;10.73;;
13319;SDS011;59599;47.608;12.190;2024-03-02T08:56:18;15.43;;;10.67;;
13319;SDS011;59599;47.608;12.190;2024-03-02T08:58:45;17.13;;;11.63;;
13319;SDS011;59599;47.608;12.190;2024-03-02T09:01:11;11.83;;;10.00;;
13319;SDS011;59599;47.608;12.190;2024-03-02T09:03:37;16.03;;;11.27;;
13319;SDS011;59599;47.608;12.190;2024-03-02T09:06:03;13.93;;;10.77;;
13319;SDS011;59599;47.608;12.190;2024-03-02T09:08:29;11.67;;;9.90;;
13319;SDS011;59599;47.608;12.190;2024-03-02T09:10:56;14.83;;;10.47;;
13319;SDS011;59599;47.608;12.190;2024-03-02T09:13:22;14.37;;;10.90;;
13319;SDS011;59599;47.608;12.190;2024-03-02T09:15:48;12.43;;;9.80;;
13319;SDS011;59599;47.608;12.190;2024-03-02T09:18:14;14.23;;;10.80;;
13319;SDS011;59599;47.608;12.190;2024-03-02T09:20:40;13.43;;;10.60;;
13319;SDS011;59599;47.608;12.190;2024-03-02T09:23:06;13.43;;;10.20;;
13319;SDS011;59599;47.608;12.190;2024-03-02T09:25:32;16.20;;;11.37;;
13319;SDS011;59599;47.608;12.190;2024-03-02T09:27:58;12.87;;;9.27;;
13319;SDS011;59599;47.608;12.190;2024-03-02T09:30:24;11.63;;;9.57;;
13319;SDS011;59599;47.608;12.190;2024-03-02T09:32:50;11.60;;;9.23;;
13319;SDS011;59599;47.608;12.190;2024-03-02T09:35:15;14.97;;;10.70;;
13319;SDS011;59599;47.608;12.190;2024-03-02T09:37:41;13.23;;;9.50;;
13319;SDS011;59599;47.608;12.190;2024-03-02T09:40:07;13.13;;;10.30;;
13319;SDS011;59599;47.608;12.190;2024-03-02T09:42:33;13.20;;;9.93;;
13319;SDS011;59599;47.608;12.190;2024-03-02T09:45:00;15.03;;;10.20;;
13319;SDS011;59599;47.608;12.190;2024-03-02T09:47:26;12.97;;;9.73;;
13319;SDS011;59599;47.608;12.190;2024-03-02T09:49:53;12.63;;;9.73;;
13319;SDS011;59599;47.608;12.190;2024-03-02T09:52:20;11.43;;;9.23;;
13319;SDS011;59599;47.608;12.190;2024-03-02T09:54:47;14.50;;;9.47;;
13319;SDS011;59599;47.608;12.190;2024-03-02T09:57:14;12.93;;;8.87;;
13319;SDS011;59599;47.608;12.190;2024-03-02T09:59:40;11.97;;;8.43;;
13319;SDS011;59599;47.608;12.190;2024-03-02T10:02:06;11.47;;;9.43;;
13319;SDS011;59599;47.608;12.190;2024-03-02T10:04:32;12.03;;;9.20;;
13319;SDS011;59599;47.608;12.190;2024-03-02T10:07:17;11.47;;;8.90;;
13319;SDS011;59599;47.608;12.190;2024-03-02T10:09:46;11.80;;;8.50;;
13319;SDS011;59599;47.608;12.190;2024-03-02T10:12:14;12.83;;;8.80;;
13319;SDS011;59599;47.608;12.190;2024-03-02T10:14:41;9.40;;;7.73;;
13319;SDS011;59599;47.608;12.190;2024-03-02T10:17:08;10.10;;;7.50;;
13319;SDS011;59599;47.608;12.190;2024-03-02T10:19:34;11.93;;;8.53;;
13319;SDS011;59599;47.608;12.190;2024-03-02T10:22:02;8.23;;;7.07;;
13319;SDS011;59599;47.608;12.190;2024-03-02T10:27:07;10.40;;;8.10;;
13319;SDS011;59599;47.608;12.190;2024-03-02T10:29:36;9.95;;;8.20;;
13319;SDS011;59599;47.608;12.190;2024-03-02T10:32:02;10.68;;;8.18;;
13319;SDS011;59599;47.608;12.190;2024-03-02T10:34:28;9.02;;;7.10;;
13319;SDS011;59599;47.608;12.190;2024-03-02T10:36:54;10.95;;;7.65;;
13319;SDS011;59599;47.608;12.190;2024-03-02T10:39:20;8.82;;;7.32;;
13319;SDS011;59599;47.608;12.190;2024-03-02T10:41:46;9.90;;;6.35;;
13319;SDS011;59599;47.608;12.190;2024-03-02T10:44:15;8.05;;;6.80;;
13319;SDS011;59599;47.608;12.190;2024-03-02T10:46:41;8.93;;;6.70;;
13319;SDS011;59599;47.608;12.190;2024-03-02T10:49:10;7.00;;;5.53;;
13319;SDS011;59599;47.608;12.190;2024-03-02T10:51:36;6.05;;;5.25;;
13319;SDS011;59599;47.608;12.190;2024-03-02T10:54:02;5.43;;;4.40;;
13319;SDS011;59599;47.608;12.190;2024-03-02T10:56:32;4.78;;;4.25;;
13319;SDS011;59599;47.608;12.190;2024-03-02T11:01:29;5.25;;;4.30;;
13319;SDS011;59599;47.608;12.190;2024-03-02T11:03:55;6.10;;;4.68;;
13319;SDS011;59599;47.608;12.190;2024-03-02T11:06:22;5.50;;;4.50;;
13319;SDS011;59599;47.608;12.190;2024-03-02T11:08:48;7.80;;;4.68;;
13319;SDS011;59599;47.608;12.190;2024-03-02T11:11:21;7.00;;;4.78;;
13319;SDS011;59599;47.608;12.190;2024-03-02T11:13:54;9.02;;;4.43;;
13319;SDS011;59599;47.608;12.190;2024-03-02T11:16:32;8.32;;;3.80;;
13319;SDS011;59599;47.608;12.190;2024-03-02T11:19:05;5.22;;;4.00;;
13319;SDS011;59599;47.608;12.190;2024-03-02T11:21:33;5.28;;;3.80;;
13319;SDS011;59599;47.608;12.190;2024-03-02T11:23:59;4.30;;;3.50;;
13319;SDS011;59599;47.608;12.190;2024-03-02T11:26:25;7.53;;;3.88;;
13319;SDS011;59599;47.608;12.190;2024-03-02T11:28:53;5.68;;;3.55;;
13319;SDS011;59599;47.608;12.190;2024-03-02T11:31:19;3.95;;;3.58;;
13319;SDS011;59599;47.608;12.190;2024-03-02T11:33:45;5.43;;;3.97;;
13319;SDS011;59599;47.608;12.190;2024-03-02T11:36:10;6.88;;;4.35;;
13319;SDS011;59599;47.608;12.190;2024-03-02T11:38:37;4.72;;;3.80;;
13319;SDS011;59599;47.608;12.190;2024-03-02T11:41:05;6.45;;;3.55;;
13319;SDS011;59599;47.608;12.190;2024-03-02T11:43:33;6.88;;;3.50;;
13319;SDS011;59599;47.608;12.190;2024-03-02T11:46:04;4.45;;;3.83;;
13319;SDS011;59599;47.608;12.190;2024-03-02T11:48:34;4.68;;;3.42;;
13319;SDS011;59599;47.608;12.190;2024-03-02T11:51:01;5.72;;;3.75;;
13319;SDS011;59599;47.608;12.190;2024-03-02T11:53:27;4.35;;;3.80;;
13319;SDS011;59599;47.608;12.190;2024-03-02T11:55:57;4.32;;;2.97;;
13319;SDS011;59599;47.608;12.190;2024-03-02T11:58:23;7.10;;;3.30;;
13319;SDS011;59599;47.608;12.190;2024-03-02T12:00:51;4.25;;;3.00;;
13319;SDS011;59599;47.608;12.190;2024-03-02T12:03:17;4.90;;;3.03;;
13319;SDS011;59599;47.608;12.190;2024-03-02T12:05:43;4.60;;;3.20;;
13319;SDS011;59599;47.608;12.190;2024-03-02T12:08:10;4.50;;;3.20;;
13319;SDS011;59599;47.608;12.190;2024-03-02T12:10:37;4.20;;;3.00;;
13319;SDS011;59599;47.608;12.190;2024-03-02T12:13:04;3.67;;;2.50;;
13319;SDS011;59599;47.608;12.190;2024-03-02T12:15:33;2.50;;;2.25;;
13319;SDS011;59599;47.608;12.190;2024-03-02T12:17:59;3.38;;;2.30;;
13319;SDS011;59599;47.608;12.190;2024-03-02T12:20:26;4.72;;;1.77;;
13319;SDS011;59599;47.608;12.190;2024-03-02T12:22:54;4.10;;;1.85;;
13319;SDS011;59599;47.608;12.190;2024-03-02T12:25:20;3.90;;;1.92;;
13319;SDS011;59599;47.608;12.190;2024-03-02T12:27:48;5.15;;;2.40;;
13319;SDS011;59599;47.608;12.190;2024-03-02T12:30:16;5.18;;;1.70;;
13319;SDS011;59599;47.608;12.190;2024-03-02T12:32:42;6.32;;;2.65;;
13319;SDS011;59599;47.608;12.190;2024-03-02T12:35:08;6.07;;;3.40;;
13319;SDS011;59599;47.608;12.190;2024-03-02T12:37:41;3.95;;;2.60;;
13319;SDS011;59599;47.608;12.190;2024-03-02T12:40:11;6.15;;;3.88;;
13319;SDS011;59599;47.608;12.190;2024-03-02T12:42:38;5.70;;;4.00;;
13319;SDS011;59599;47.608;12.190;2024-03-02T12:45:04;5.07;;;3.60;;
13319;SDS011;59599;47.608;12.190;2024-03-02T12:47:36;2.42;;;2.13;;
13319;SDS011;59599;47.608;12.190;2024-03-02T12:50:06;8.38;;;4.20;;
13319;SDS011;59599;47.608;12.190;2024-03-02T12:52:32;5.95;;;4.80;;
13319;SDS011;59599;47.608;12.190;2024-03-02T12:54:59;9.25;;;5.50;;
13319;SDS011;59599;47.608;12.190;2024-03-02T12:57:26;4.25;;;3.58;;
13319;SDS011;59599;47.608;12.190;2024-03-02T12:59:52;5.32;;;4.43;;
13319;SDS011;59599;47.608;12.190;2024-03-02T13:02:19;7.53;;;5.00;;
13319;SDS011;59599;47.608;12.190;2024-03-02T13:04:51;9.30;;;5.10;;
13319;SDS011;59599;47.608;12.190;2024-03-02T13:07:18;8.23;;;5.90;;
13319;SDS011;59599;47.608;12.190;2024-03-02T13:09:45;7.10;;;5.75;;
13319;SDS011;59599;47.608;12.190;2024-03-02T13:12:11;6.78;;;5.68;;
13319;SDS011;59599;47.608;12.190;2024-03-02T13:14:36;8.13;;;5.75;;
13319;SDS011;59599;47.608;12.190;2024-03-02T13:17:02;7.18;;;6.43;;
13319;SDS011;59599;47.608;12.190;2024-03-02T13:19:31;8.63;;;6.55;;
13319;SDS011;59599;47.608;12.190;2024-03-02T13:21:57;8.45;;;6.63;;
13319;SDS011;59599;47.608;12.190;2024-03-02T13:24:23;10.82;;;7.20;;
13319;SDS011;59599;47.608;12.190;2024-03-02T13:26:53;8.95;;;7.15;;
13319;SDS011;59599;47.608;12.190;2024-03-02T13:29:21;7.60;;;6.65;;
13319;SDS011;59599;47.608;12.190;2024-03-02T13:31:47;9.23;;;7.47;;
13319;SDS011;59599;47.608;12.190;2024-03-02T13:34:13;9.48;;;7.57;;
13319;SDS011;59599;47.608;12.190;2024-03-02T13:36:39;7.55;;;6.30;;
13319;SDS011;59599;47.608;12.190;2024-03-02T13:39:05;9.77;;;7.30;;
13319;SDS011;59599;47.608;12.190;2024-03-02T13:41:34;7.60;;;6.65;;
13319;SDS011;59599;47.608;12.190;2024-03-02T13:43:59;9.82;;;7.45;;
13319;SDS011;59599;47.608;12.190;2024-03-02T13:46:26;8.80;;;6.97;;
13319;SDS011;59599;47.608;12.190;2024-03-02T13:48:52;11.63;;;7.63;;
13319;SDS011;59599;47.608;12.190;2024-03-02T13:51:19;8.70;;;7.15;;
13319;SDS011;59599;47.608;12.190;2024-03-02T13:53:45;8.50;;;7.28;;
13319;SDS011;59599;47.608;12.190;2024-03-02T13:56:10;8.70;;;6.93;;
13319;SDS011;59599;47.608;12.190;2024-03-02T13:58:36;8.25;;;6.63;;
13319;SDS011;59599;47.608;12.190;2024-03-02T14:01:02;12.93;;;8.55;;
13319;SDS011;59599;47.608;12.190;2024-03-02T14:03:29;11.13;;;7.43;;
13319;SDS011;59599;47.608;12.190;2024-03-02T14:05:55;10.50;;;7.63;;
13319;SDS011;59599;47.608;12.190;2024-03-02T14:08:21;8.32;;;7.03;;
13319;SDS011;59599;47.608;12.190;2024-03-02T14:10:47;10.45;;;7.47;;
13319;SDS011;59599;47.608;12.190;2024-03-02T14:13:12;7.90;;;6.63;;
13319;SDS011;59599;47.608;12.190;2024-03-02T14:15:38;9.07;;;6.72;;
13319;SDS011;59599;47.608;12.190;2024-03-02T14:18:05;9.82;;;7.63;;
13319;SDS011;59599;47.608;12.190;2024-03-02T14:20:30;8.10;;;6.32;;
13319;SDS011;59599;47.608;12.190;2024-03-02T14:22:57;6.95;;;6.25;;
13319;SDS011;59599;47.608;12.190;2024-03-02T14:25:24;8.85;;;6.28;;
13319;SDS011;59599;47.608;12.190;2024-03-02T14:27:50;11.18;;;6.78;;
13319;SDS011;59599;47.608;12.190;2024-03-02T14:30:16;8.15;;;7.07;;
13319;SDS011;59599;47.608;12.190;2024-03-02T14:32:42;8.35;;;7.07;;
13319;SDS011;59599;47.608;12.190;2024-03-02T14:35:07;9.65;;;7.10;;
13319;SDS011;59599;47.608;12.190;2024-03-02T14:37:36;8.02;;;6.75;;
13319;SDS011;59599;47.608;12.190;2024-03-02T14:40:02;9.05;;;7.40;;
13319;SDS011;59599;47.608;12.190;2024-03-02T14:42:31;9.93;;;7.57;;
13319;SDS011;59599;47.608;12.190;2024-03-02T14:44:57;11.77;;;7.10;;
13319;SDS011;59599;47.608;12.190;2024-03-02T14:47:22;8.80;;;7.45;;
13319;SDS011;59599;47.608;12.190;2024-03-02T14:49:49;7.68;;;6.88;;
13319;SDS011;59599;47.608;12.190;2024-03-02T14:52:15;8.80;;;6.78;;
13319;SDS011;59599;47.608;12.190;2024-03-02T14:54:43;9.52;;;7.90;;
13319;SDS011;59599;47.608;12.190;2024-03-02T14:57:09;8.07;;;7.13;;
13319;SDS011;59599;47.608;12.190;2024-03-02T14:59:36;12.05;;;7.22;;
13319;SDS011;59599;47.608;12.190;2024-03-02T15:02:02;9.50;;;6.50;;
13319;SDS011;59599;47.608;12.190;2024-03-02T15:04:28;7.85;;;6.95;;
13319;SDS011;59599;47.608;12.190;2024-03-02T15:06:53;12.98;;;6.57;;
13319;SDS011;59599;47.608;12.190;2024-03-02T15:09:19;8.15;;;6.95;;
13319;SDS011;59599;47.608;12.190;2024-03-02T15:11:45;9.70;;;6.45;;
13319;SDS011;59599;47.608;12.190;2024-03-02T15:14:11;7.65;;;6.15;;
13319;SDS011;59599;47.608;12.190;2024-03-02T15:16:37;8.43;;;7.13;;
13319;SDS011;59599;47.608;12.190;2024-03-02T15:19:03;8.27;;;6.35;;
13319;SDS011;59599;47.608;12.190;2024-03-02T15:21:29;9.25;;;6.72;;
13319;SDS011;59599;47.608;12.190;2024-03-02T15:23:55;7.78;;;6.30;;
13319;SDS011;59599;47.608;12.190;2024-03-02T15:26:21;8.68;;;6.70;;
13319;SDS011;59599;47.608;12.190;2024-03-02T15:28:47;10.77;;;6.60;;
13319;SDS011;59599;47.608;12.190;2024-03-02T15:31:13;7.45;;;6.63;;
13319;SDS011;59599;47.608;12.190;2024-03-02T15:33:39;7.63;;;6.38;;
13319;SDS011;59599;47.608;12.190;2024-03-02T15:36:05;7.70;;;6.45;;
13319;SDS011;59599;47.608;12.190;2024-03-02T15:38:30;7.78;;;6.38;;
13319;SDS011;59599;47.608;12.190;2024-03-02T15:40:57;8.05;;;6.25;;
13319;SDS011;59599;47.608;12.190;2024-03-02T15:43:23;9.32;;;6.35;;
13319;SDS011;59599;47.608;12.190;2024-03-02T15:45:49;10.85;;;6.80;;
13319;SDS011;59599;47.608;12.190;2024-03-02T15:48:15;7.28;;;6.10;;
13319;SDS011;59599;47.608;12.190;2024-03-02T15:50:41;7.57;;;6.05;;
13319;SDS011;59599;47.608;12.190;2024-03-02T15:53:07;7.10;;;6.35;;
13319;SDS011;59599;47.608;12.190;2024-03-02T15:55:33;7.00;;;5.85;;
13319;SDS011;59599;47.608;12.190;2024-03-02T15:58:01;7.40;;;6.70;;
13319;SDS011;59599;47.608;12.190;2024-03-02T16:00:30;11.52;;;6.15;;
13319;SDS011;59599;47.608;12.190;2024-03-02T16:02:56;9.77;;;6.25;;
13319;SDS011;59599;47.608;12.190;2024-03-02T16:05:22;8.45;;;6.28;;
13319;SDS011;59599;47.608;12.190;2024-03-02T16:07:48;7.13;;;6.15;;
13319;SDS011;59599;47.608;12.190;2024-03-02T16:10:14;8.88;;;6.43;;
13319;SDS011;59599;47.608;12.190;2024-03-02T16:12:40;7.07;;;6.38;;
13319;SDS011;59599;47.608;12.190;2024-03-02T16:15:06;7.50;;;6.30;;
13319;SDS011;59599;47.608;12.190;2024-03-02T16:17:33;7.55;;;5.72;;
13319;SDS011;59599;47.608;12.190;2024-03-02T16:19:59;10.55;;;6.30;;
13319;SDS011;59599;47.608;12.190;2024-03-02T16:22:24;8.18;;;6.35;;
13319;SDS011;59599;47.608;12.190;2024-03-02T16:24:50;7.43;;;6.40;;
13319;SDS011;59599;47.608;12.190;2024-03-02T16:27:16;8.60;;;6.18;;
13319;SDS011;59599;47.608;12.190;2024-03-02T16:29:43;8.95;;;6.38;;
13319;SDS011;59599;47.608;12.190;2024-03-02T16:32:08;10.88;;;7.53;;
13319;SDS011;59599;47.608;12.190;2024-03-02T16:34:34;10.70;;;7.50;;
13319;SDS011;59599;47.608;12.190;2024-03-02T16:37:00;13.77;;;8.77;;
13319;SDS011;59599;47.608;12.190;2024-03-02T16:39:28;14.73;;;8.80;;
13319;SDS011;59599;47.608;12.190;2024-03-02T16:41:53;12.43;;;8.07;;
13319;SDS011;59599;47.608;12.190;2024-03-02T16:44:19;11.88;;;7.75;;
13319;SDS011;59599;47.608;12.190;2024-03-02T16:46:45;11.55;;;7.45;;
13319;SDS011;59599;47.608;12.190;2024-03-02T16:49:12;10.50;;;7.57;;
13319;SDS011;59599;47.608;12.190;2024-03-02T16:51:38;12.35;;;7.50;;
13319;SDS011;59599;47.608;12.190;2024-03-02T16:54:04;11.60;;;7.00;;
13319;SDS011;59599;47.608;12.190;2024-03-02T16:56:37;9.77;;;7.03;;
13319;SDS011;59599;47.608;12.190;2024-03-02T16:59:03;10.27;;;7.15;;
13319;SDS011;59599;47.608;12.190;2024-03-02T17:01:28;10.68;;;8.50;;
13319;SDS011;59599;47.608;12.190;2024-03-02T17:03:54;11.32;;;8.15;;
13319;SDS011;59599;47.608;12.190;2024-03-02T17:06:20;11.10;;;7.32;;
13319;SDS011;59599;47.608;12.190;2024-03-02T17:08:46;12.43;;;7.63;;
13319;SDS011;59599;47.608;12.190;2024-03-02T17:11:11;8.70;;;7.20;;
13319;SDS011;59599;47.608;12.190;2024-03-02T17:13:37;13.30;;;8.35;;
13319;SDS011;59599;47.608;12.190;2024-03-02T17:16:03;12.95;;;9.55;;
13319;SDS011;59599;47.608;12.190;2024-03-02T17:18:29;11.32;;;8.63;;
13319;SDS011;59599;47.608;12.190;2024-03-02T17:20:55;11.93;;;9.40;;
13319;SDS011;59599;47.608;12.190;2024-03-02T17:23:21;13.57;;;9.20;;
13319;SDS011;59599;47.608;12.190;2024-03-02T17:25:46;13.00;;;8.27;;
13319;SDS011;59599;47.608;12.190;2024-03-02T17:28:23;9.87;;;7.60;;
13319;SDS011;59599;47.608;12.190;2024-03-02T17:30:50;11.37;;;7.73;;
13319;SDS011;59599;47.608;12.190;2024-03-02T17:33:16;16.47;;;10.60;;
13319;SDS011;59599;47.608;12.190;2024-03-02T17:35:41;23.17;;;16.17;;
13319;SDS011;59599;47.608;12.190;2024-03-02T17:38:10;25.77;;;16.37;;
13319;SDS011;59599;47.608;12.190;2024-03-02T17:40:36;21.50;;;15.63;;
13319;SDS011;59599;47.608;12.190;2024-03-02T17:43:02;18.73;;;14.90;;
13319;SDS011;59599;47.608;12.190;2024-03-02T17:45:28;22.63;;;13.80;;
13319;SDS011;59599;47.608;12.190;2024-03-02T17:47:54;14.80;;;10.37;;
13319;SDS011;59599;47.608;12.190;2024-03-02T17:50:20;16.20;;;11.10;;
13319;SDS011;59599;47.608;12.190;2024-03-02T17:52:46;17.93;;;10.00;;
13319;SDS011;59599;47.608;12.190;2024-03-02T17:55:12;16.70;;;10.30;;
13319;SDS011;59599;47.608;12.190;2024-03-02T17:57:38;17.83;;;11.27;;
13319;SDS011;59599;47.608;12.190;2024-03-02T18:00:04;15.97;;;10.33;;
13319;SDS011;59599;47.608;12.190;2024-03-02T18:02:30;9.33;;;7.87;;
13319;SDS011;59599;47.608;12.190;2024-03-02T18:04:58;10.83;;;7.43;;
13319;SDS011;59599;47.608;12.190;2024-03-02T18:07:24;9.20;;;7.63;;
13319;SDS011;59599;47.608;12.190;2024-03-02T18:09:50;10.03;;;7.97;;
13319;SDS011;59599;47.608;12.190;2024-03-02T18:12:16;10.70;;;8.50;;
13319;SDS011;59599;47.608;12.190;2024-03-02T18:14:42;11.93;;;7.23;;
13319;SDS011;59599;47.608;12.190;2024-03-02T18:17:08;10.93;;;7.53;;
13319;SDS011;59599;47.608;12.190;2024-03-02T18:19:34;21.40;;;16.03;;
13319;SDS011;59599;47.608;12.190;2024-03-02T18:22:00;16.17;;;13.53;;
13319;SDS011;59599;47.608;12.190;2024-03-02T18:24:25;8.97;;;7.07;;
13319;SDS011;59599;47.608;12.190;2024-03-02T18:26:54;9.67;;;7.17;;
13319;SDS011;59599;47.608;12.190;2024-03-02T18:29:19;10.57;;;6.50;;
13319;SDS011;59599;47.608;12.190;2024-03-02T18:31:46;12.23;;;7.77;;
13319;SDS011;59599;47.608;12.190;2024-03-02T18:34:11;8.87;;;5.77;;
13319;SDS011;59599;47.608;12.190;2024-03-02T18:36:37;7.23;;;5.77;;
13319;SDS011;59599;47.608;12.190;2024-03-02T18:39:02;7.27;;;4.70;;
13319;SDS011;59599;47.608;12.190;2024-03-02T18:41:31;7.00;;;4.10;;
13319;SDS011;59599;47.608;12.190;2024-03-02T18:43:57;7.10;;;4.67;;
13319;SDS011;59599;47.608;12.190;2024-03-02T18:46:23;8.07;;;5.10;;
13319;SDS011;59599;47.608;12.190;2024-03-02T18:48:49;6.20;;;4.50;;
13319;SDS011;59599;47.608;12.190;2024-03-02T18:51:15;7.07;;;5.40;;
13319;SDS011;59599;47.608;12.190;2024-03-02T18:53:41;6.93;;;4.87;;
13319;SDS011;59599;47.608;12.190;2024-03-02T18:56:10;5.50;;;4.63;;
13319;SDS011;59599;47.608;12.190;2024-03-02T18:58:36;7.27;;;4.70;;
13319;SDS011;59599;47.608;12.190;2024-03-02T19:01:01;6.67;;;4.90;;
13319;SDS011;59599;47.608;12.190;2024-03-02T19:03:27;6.90;;;5.43;;
13319;SDS011;59599;47.608;12.190;2024-03-02T19:05:53;7.43;;;5.70;;
13319;SDS011;59599;47.608;12.190;2024-03-02T19:08:19;8.50;;;5.87;;
13319;SDS011;59599;47.608;12.190;2024-03-02T19:10:46;8.57;;;6.70;;
13319;SDS011;59599;47.608;12.190;2024-03-02T19:13:11;10.20;;;6.03;;
13319;SDS011;59599;47.608;12.190;2024-03-02T19:15:37;12.93;;;6.63;;
13319;SDS011;59599;47.608;12.190;2024-03-02T19:18:03;12.03;;;8.43;;
13319;SDS011;59599;47.608;12.190;2024-03-02T19:20:30;10.47;;;7.57;;
13319;SDS011;59599;47.608;12.190;2024-03-02T19:22:56;8.30;;;6.37;;
13319;SDS011;59599;47.608;12.190;2024-03-02T19:25:22;7.67;;;5.83;;